createdAt,value
2023-01-30T00:01:59.995Z,101071.91
2023-01-30T00:04:27.908Z,101053.97
2023-01-30T00:06:55.855Z,101048.78
2023-01-30T00:09:23.779Z,101038.56
2023-01-30T00:11:51.763Z,101020.53
2023-01-30T00:14:19.670Z,101019.22
2023-01-30T00:16:47.673Z,101039.28
2023-01-30T00:19:16.963Z,101037.91
2023-01-30T00:21:44.858Z,101035.66
2023-01-30T00:24:12.882Z,101028.47
2023-01-30T00:26:40.796Z,101023.81
2023-01-30T00:29:08.816Z,101003.84
2023-01-30T00:31:36.784Z,101003.50
2023-01-30T00:34:04.694Z,100990.13
2023-01-30T00:36:34.011Z,100972.03
2023-01-30T00:39:01.933Z,100991.75
2023-01-30T00:41:50.264Z,100971.44
2023-01-30T00:44:35.614Z,100972.72
2023-01-30T00:47:06.333Z,100955.78
2023-01-30T00:49:34.686Z,100947.38
2023-01-30T00:52:04.111Z,100946.63
2023-01-30T00:54:32.212Z,100940.88
2023-01-30T00:57:00.159Z,100936.38
2023-01-30T00:59:28.299Z,100908.72
2023-01-30T01:01:56.253Z,100928.00
2023-01-30T01:04:24.165Z,100922.63
2023-01-30T01:06:52.122Z,100918.13
2023-01-30T01:09:21.483Z,100905.50
2023-01-30T01:11:49.404Z,100889.03
2023-01-30T01:14:17.293Z,100895.25
2023-01-30T01:16:45.239Z,100867.22
2023-01-30T01:19:13.428Z,100886.63
2023-01-30T01:21:41.352Z,100870.06
2023-01-30T01:24:13.320Z,100876.03
2023-01-30T01:26:43.123Z,100867.56
2023-01-30T01:29:12.833Z,100862.59
2023-01-30T01:31:40.821Z,100850.06
2023-01-30T01:34:08.848Z,100849.50
2023-01-30T01:36:52.666Z,100846.81
2023-01-30T01:39:21.584Z,100859.53
2023-01-30T01:41:49.843Z,100855.84
2023-01-30T01:44:18.102Z,100839.06
2023-01-30T01:46:48.338Z,100846.16
2023-01-30T01:49:19.471Z,100842.03
2023-01-30T01:51:51.587Z,100827.03
2023-01-30T01:54:23.785Z,100824.03
2023-01-30T01:56:53.112Z,100817.25
2023-01-30T01:59:24.798Z,100830.06
2023-01-30T02:01:55.142Z,100821.25
2023-01-30T02:04:48.001Z,100820.03
2023-01-30T02:07:18.416Z,100817.81
2023-01-30T02:09:46.531Z,100813.22
2023-01-30T02:12:16.343Z,100810.28
2023-01-30T02:14:44.512Z,100801.72
2023-01-30T02:17:12.437Z,100803.66
2023-01-30T02:19:48.878Z,100813.81
2023-01-30T02:22:45.493Z,100800.09
2023-01-30T02:25:50.489Z,100795.22
2023-01-30T02:28:47.426Z,100797.50
2023-01-30T02:31:30.423Z,100797.13
2023-01-30T02:34:32.173Z,100789.84
2023-01-30T02:37:05.999Z,100798.00
2023-01-30T02:39:39.055Z,100790.41
2023-01-30T02:42:12.513Z,100785.44
2023-01-30T02:44:46.459Z,100775.56
2023-01-30T02:47:18.959Z,100787.72
2023-01-30T02:49:49.891Z,100784.59
2023-01-30T02:52:18.561Z,100766.31
2023-01-30T02:54:46.566Z,100750.50
2023-01-30T02:57:20.963Z,100757.19
2023-01-30T02:59:50.806Z,100755.13
2023-01-30T03:02:34.707Z,100761.44
2023-01-30T03:05:19.237Z,100762.19
2023-01-30T03:07:51.974Z,100755.38
2023-01-30T03:10:27.621Z,100756.13
2023-01-30T03:12:59.717Z,100764.84
2023-01-30T03:15:31.064Z,100760.63
2023-01-30T03:18:00.888Z,100772.31
2023-01-30T03:20:28.910Z,100762.75
2023-01-30T03:22:56.850Z,100755.63
2023-01-30T03:25:27.003Z,100758.31
2023-01-30T03:27:56.331Z,100739.13
2023-01-30T03:30:26.511Z,100757.06
2023-01-30T03:32:54.434Z,100750.06
2023-01-30T03:35:23.843Z,100748.72
2023-01-30T03:37:51.974Z,100749.00
2023-01-30T03:40:20.142Z,100732.28
2023-01-30T03:42:48.059Z,100739.16
2023-01-30T03:45:16.389Z,100744.84
2023-01-30T03:47:44.469Z,100735.53
2023-01-30T03:50:12.530Z,100736.22
2023-01-30T03:52:41.867Z,100732.72
2023-01-30T03:55:11.396Z,100738.81
2023-01-30T03:57:39.574Z,100743.78
2023-01-30T04:00:08.682Z,100739.81
2023-01-30T04:02:38.708Z,100746.78
2023-01-30T04:05:07.283Z,100735.56
2023-01-30T04:07:35.186Z,100737.81
2023-01-30T04:10:04.675Z,100742.50
2023-01-30T04:12:32.580Z,100724.59
2023-01-30T04:15:00.486Z,100729.03
2023-01-30T04:17:28.377Z,100730.75
2023-01-30T04:19:56.270Z,100733.03
2023-01-30T04:22:24.188Z,100732.34
2023-01-30T04:24:52.108Z,100729.34
2023-01-30T04:27:21.406Z,100727.63
2023-01-30T04:29:49.304Z,100725.78
2023-01-30T04:32:17.218Z,100738.19
2023-01-30T04:34:45.311Z,100745.06
2023-01-30T04:37:13.413Z,100754.53
2023-01-30T04:39:41.409Z,100735.59
2023-01-30T04:42:09.318Z,100740.88
2023-01-30T04:44:38.624Z,100718.56
2023-01-30T04:47:06.529Z,100728.06
2023-01-30T04:49:34.428Z,100730.06
2023-01-30T04:52:02.340Z,100734.28
2023-01-30T04:54:30.275Z,100723.41
2023-01-30T04:56:58.494Z,100725.53
2023-01-30T04:59:26.503Z,100720.81
2023-01-30T05:01:55.975Z,100738.31
2023-01-30T05:04:23.881Z,100736.28
2023-01-30T05:06:51.847Z,100736.69
2023-01-30T05:09:19.743Z,100744.47
2023-01-30T05:11:47.655Z,100743.59
2023-01-30T05:14:15.608Z,100749.91
2023-01-30T05:16:43.615Z,100737.34
2023-01-30T05:19:14.390Z,100739.28
2023-01-30T05:21:42.335Z,100745.25
2023-01-30T05:24:10.315Z,100743.34
2023-01-30T05:26:38.310Z,100733.09
2023-01-30T05:29:06.251Z,100729.75
2023-01-30T05:31:35.429Z,100720.16
2023-01-30T05:34:03.422Z,100721.44
2023-01-30T05:36:32.924Z,100712.19
2023-01-30T05:39:00.828Z,100712.47
2023-01-30T05:41:28.736Z,100710.94
2023-01-30T05:43:56.695Z,100713.75
2023-01-30T05:46:24.660Z,100707.72
2023-01-30T05:48:52.741Z,100708.09
2023-01-30T05:51:22.021Z,100703.03
2023-01-30T05:53:51.712Z,100689.72
2023-01-30T05:56:20.402Z,100701.41
2023-01-30T05:58:53.196Z,100699.19
2023-01-30T06:01:21.560Z,100694.69
2023-01-30T06:03:49.670Z,100688.56
2023-01-30T06:06:17.659Z,100686.00
2023-01-30T06:08:45.644Z,100691.44
2023-01-30T06:11:16.910Z,100696.91
2023-01-30T06:13:45.406Z,100696.13
2023-01-30T06:16:15.549Z,100688.19
2023-01-30T06:18:43.597Z,100694.50
2023-01-30T06:21:11.499Z,100690.75
2023-01-30T06:23:39.987Z,100692.13
2023-01-30T06:26:09.192Z,100695.56
2023-01-30T06:28:38.926Z,100696.84
2023-01-30T06:31:08.105Z,100693.38
2023-01-30T06:33:36.208Z,100700.56
2023-01-30T06:36:04.392Z,100693.56
2023-01-30T06:38:32.319Z,100692.16
2023-01-30T06:41:00.482Z,100685.19
2023-01-30T06:43:28.394Z,100688.25
2023-01-30T06:45:59.835Z,100695.53
2023-01-30T06:48:27.862Z,100691.00
2023-01-30T06:50:55.945Z,100700.97
2023-01-30T06:53:30.134Z,100699.53
2023-01-30T06:55:58.489Z,100702.97
2023-01-30T06:58:26.546Z,100706.34
2023-01-30T07:00:54.569Z,100696.84
2023-01-30T07:03:23.917Z,100691.31
2023-01-30T07:05:52.039Z,100692.94
2023-01-30T07:08:19.996Z,100688.31
2023-01-30T07:10:47.883Z,100688.19
2023-01-30T07:13:15.842Z,100697.00
2023-01-30T07:15:43.920Z,100691.94
2023-01-30T07:18:11.862Z,100684.38
2023-01-30T07:20:42.209Z,100697.66
2023-01-30T07:23:10.111Z,100697.06
2023-01-30T07:25:38.072Z,100689.78
2023-01-30T07:28:06.416Z,100690.19
2023-01-30T07:30:36.123Z,100691.91
2023-01-30T07:33:05.696Z,100690.94
2023-01-30T07:35:35.773Z,100674.31
2023-01-30T07:38:05.429Z,100676.19
2023-01-30T07:40:33.621Z,100671.41
2023-01-30T07:43:02.670Z,100669.78
2023-01-30T07:45:35.896Z,100664.81
2023-01-30T07:48:03.834Z,100669.66
2023-01-30T07:50:31.753Z,100679.34
2023-01-30T07:52:59.778Z,100660.28
2023-01-30T07:55:29.696Z,100670.19
2023-01-30T07:57:57.586Z,100678.56
2023-01-30T08:00:26.180Z,100680.56
2023-01-30T08:02:54.115Z,100671.50
2023-01-30T08:05:22.211Z,100662.16
2023-01-30T08:07:50.117Z,100668.88
2023-01-30T08:10:18.608Z,100674.63
2023-01-30T08:12:48.071Z,100681.81
2023-01-30T08:15:16.077Z,100684.94
2023-01-30T08:17:43.969Z,100680.63
2023-01-30T08:20:16.981Z,100678.78
2023-01-30T08:22:45.456Z,100673.31
2023-01-30T08:25:13.372Z,100681.38
2023-01-30T08:27:41.320Z,100676.56
2023-01-30T08:30:12.243Z,100670.34
2023-01-30T08:32:40.137Z,100685.50
2023-01-30T08:35:09.389Z,100680.75
2023-01-30T08:37:37.562Z,100679.69
2023-01-30T08:40:06.253Z,100674.25
2023-01-30T08:42:34.161Z,100667.41
2023-01-30T08:45:02.102Z,100667.69
2023-01-30T08:47:32.051Z,100676.41
2023-01-30T08:49:59.955Z,100667.50
2023-01-30T08:52:27.873Z,100668.78
2023-01-30T08:54:55.809Z,100665.16
2023-01-30T08:57:23.709Z,100663.78
2023-01-30T08:59:52.275Z,100663.88
2023-01-30T09:02:20.287Z,100653.25
2023-01-30T09:04:49.608Z,100645.44
2023-01-30T09:07:17.545Z,100645.50
2023-01-30T09:09:45.449Z,100641.97
2023-01-30T09:12:13.519Z,100635.75
2023-01-30T09:14:41.471Z,100637.38
2023-01-30T09:17:09.379Z,100634.25
2023-01-30T09:19:37.298Z,100627.78
2023-01-30T09:22:07.412Z,100628.53
2023-01-30T09:24:35.470Z,100607.91
2023-01-30T09:27:03.481Z,100610.72
2023-01-30T09:29:31.527Z,100608.16
2023-01-30T09:31:59.570Z,100609.22
2023-01-30T09:34:29.049Z,100600.63
2023-01-30T09:36:57.497Z,100592.44
2023-01-30T09:39:27.050Z,100582.25
2023-01-30T09:42:02.045Z,100586.25
2023-01-30T09:44:58.814Z,100578.28
2023-01-30T09:47:36.183Z,100569.47
2023-01-30T09:50:16.933Z,100554.72
2023-01-30T09:52:55.213Z,100544.97
2023-01-30T09:55:26.249Z,100536.25
2023-01-30T09:57:54.350Z,100544.63
2023-01-30T10:00:27.437Z,100534.06
2023-01-30T10:03:00.388Z,100535.66
2023-01-30T10:05:34.521Z,100529.91
2023-01-30T10:08:36.088Z,100505.50
2023-01-30T10:11:10.877Z,100487.88
2023-01-30T10:14:01.088Z,100493.56
2023-01-30T10:16:32.599Z,100489.38
2023-01-30T10:19:38.535Z,100474.53
2023-01-30T10:22:17.948Z,100464.78
2023-01-30T10:24:53.693Z,100454.75
2023-01-30T10:27:23.908Z,100470.81
2023-01-30T10:29:56.558Z,100468.88
2023-01-30T10:32:29.304Z,100453.00
2023-01-30T10:34:59.646Z,100447.75
2023-01-30T10:37:31.147Z,100436.53
2023-01-30T10:40:04.154Z,100443.88
2023-01-30T10:42:40.097Z,100449.69
2023-01-30T10:45:13.581Z,100426.81
2023-01-30T10:47:56.800Z,100432.00
2023-01-30T10:50:30.875Z,100428.50
2023-01-30T10:53:03.302Z,100417.75
2023-01-30T10:55:38.279Z,100409.69
2023-01-30T10:58:16.815Z,100437.97
2023-01-30T11:00:48.034Z,100447.38
2023-01-30T11:03:25.415Z,100495.53
2023-01-30T11:05:54.513Z,100535.81
2023-01-30T11:08:24.951Z,100555.16
2023-01-30T11:10:53.975Z,100545.97
2023-01-30T11:13:26.606Z,100539.16
2023-01-30T11:15:57.204Z,100552.94
2023-01-30T11:19:18.249Z,100569.91
2023-01-30T11:21:19.164Z,100588.97
2023-01-30T11:23:47.089Z,100584.91
2023-01-30T11:26:21.051Z,100591.41
2023-01-30T11:28:50.439Z,100584.06
2023-01-30T11:31:31.526Z,100593.53
2023-01-30T11:34:05.729Z,100596.41
2023-01-30T11:36:34.707Z,100600.06
2023-01-30T11:39:05.239Z,100584.22
2023-01-30T11:41:33.229Z,100603.06
2023-01-30T11:44:04.441Z,100587.56
2023-01-30T11:46:35.064Z,100585.66
2023-01-30T11:49:45.672Z,100594.44
2023-01-30T11:51:55.713Z,100600.53
2023-01-30T11:54:29.395Z,100580.88
2023-01-30T11:56:58.496Z,100576.31
2023-01-30T11:59:30.493Z,100568.75
2023-01-30T12:02:05.470Z,100579.56
2023-01-30T12:04:33.467Z,100561.06
2023-01-30T12:07:14.983Z,100559.22
2023-01-30T12:09:42.927Z,100536.25
2023-01-30T12:12:33.515Z,100527.75
2023-01-30T12:15:13.332Z,100509.16
2023-01-30T12:17:45.525Z,100515.72
2023-01-30T12:20:19.458Z,100501.09
2023-01-30T12:22:53.125Z,100519.59
2023-01-30T12:25:24.979Z,100537.84
2023-01-30T12:30:34.880Z,100552.00
2023-01-30T12:33:05.164Z,100563.19
2023-01-30T12:35:44.946Z,100574.25
2023-01-30T12:38:22.645Z,100582.00
2023-01-30T12:40:55.611Z,100577.16
2023-01-30T12:43:36.713Z,100583.81
2023-01-30T12:46:16.487Z,100577.19
2023-01-30T12:49:11.747Z,100576.63
2023-01-30T12:51:58.726Z,100568.69
2023-01-30T12:54:37.196Z,100571.59
2023-01-30T12:57:13.790Z,100564.31
2023-01-30T12:59:50.631Z,100574.50
2023-01-30T13:02:46.445Z,100577.19
2023-01-30T13:05:23.406Z,100584.56
2023-01-30T13:08:04.588Z,100600.13
2023-01-30T13:10:37.766Z,100571.69
2023-01-30T13:13:15.373Z,100575.75
2023-01-30T13:15:47.482Z,100570.19
2023-01-30T13:18:19.768Z,100576.31
2023-01-30T13:21:02.776Z,100590.28
2023-01-30T13:23:40.110Z,100574.78
2023-01-30T13:26:10.623Z,100570.44
2023-01-30T13:28:41.504Z,100578.53
2023-01-30T13:31:12.614Z,100567.91
2023-01-30T13:33:44.798Z,100569.81
2023-01-30T13:36:15.844Z,100569.19
2023-01-30T13:38:50.812Z,100570.22
2023-01-30T13:41:20.244Z,100576.69
2023-01-30T13:43:50.277Z,100562.75
2023-01-30T13:46:23.703Z,100561.22
2023-01-30T13:49:02.245Z,100570.09
2023-01-30T13:51:42.960Z,100588.53
2023-01-30T13:54:30.035Z,100582.09
2023-01-30T13:57:01.631Z,100605.19
2023-01-30T13:59:44.487Z,100625.22
2023-01-30T14:02:29.970Z,100633.41
2023-01-30T14:04:59.358Z,100645.88
2023-01-30T14:07:29.735Z,100633.41
2023-01-30T14:10:12.899Z,100668.47
2023-01-30T14:12:42.951Z,100681.50
2023-01-30T14:15:24.593Z,100663.72
2023-01-30T14:18:05.464Z,100676.22
2023-01-30T14:20:36.193Z,100670.53
2023-01-30T14:23:06.042Z,100680.41
2023-01-30T14:25:47.347Z,100679.47
2023-01-30T14:28:48.769Z,100701.59
2023-01-30T14:31:53.882Z,100717.84
2023-01-30T14:34:49.611Z,100691.16
2023-01-30T14:38:01.653Z,100729.88
2023-01-30T14:40:44.990Z,100748.84
2023-01-30T14:43:52.605Z,100748.72
2023-01-30T14:46:54.616Z,100765.75
2023-01-30T14:49:28.765Z,100768.41
2023-01-30T14:51:57.088Z,100761.09
2023-01-30T14:54:40.261Z,100759.94
2023-01-30T14:57:23.562Z,100788.88
2023-01-30T15:00:14.398Z,100790.91
2023-01-30T15:02:44.675Z,100796.63
2023-01-30T15:05:14.680Z,100794.03
2023-01-30T15:07:45.061Z,100806.50
2023-01-30T15:10:23.567Z,100835.34
2023-01-30T15:13:22.250Z,100839.47
2023-01-30T15:15:58.786Z,100829.97
2023-01-30T15:18:41.323Z,100846.88
2023-01-30T15:21:31.652Z,100859.44
2023-01-30T15:24:08.708Z,100851.28
2023-01-30T15:26:46.400Z,100854.91
2023-01-30T15:29:56.805Z,100871.06
2023-01-30T15:32:26.186Z,100877.72
2023-01-30T15:34:55.590Z,100901.16
2023-01-30T15:37:35.882Z,100878.47
2023-01-30T15:40:24.798Z,100890.75
2023-01-30T15:42:54.806Z,100903.75
2023-01-30T15:45:31.267Z,100913.44
2023-01-30T15:48:10.902Z,100916.66
2023-01-30T15:50:38.955Z,100930.63
2023-01-30T15:53:13.255Z,100920.31
2023-01-30T15:55:44.193Z,100928.22
2023-01-30T15:58:15.981Z,100961.34
2023-01-30T16:00:48.851Z,100944.34
2023-01-30T16:03:19.419Z,100952.06
2023-01-30T16:05:48.573Z,100957.44
2023-01-30T16:08:21.449Z,100954.25
2023-01-30T16:10:49.863Z,100978.69
2023-01-30T16:13:20.581Z,100981.06
2023-01-30T16:15:55.271Z,100988.94
2023-01-30T16:18:31.748Z,101002.97
2023-01-30T16:21:03.195Z,101009.56
2023-01-30T16:23:33.227Z,101014.16
2023-01-30T16:26:01.214Z,101004.59
2023-01-30T16:28:29.909Z,101021.88
2023-01-30T16:31:03.857Z,101024.06
2023-01-30T16:33:36.523Z,101040.28
2023-01-30T16:36:05.929Z,101038.97
2023-01-30T16:38:40.131Z,101043.34
2023-01-30T16:41:16.794Z,101050.47
2023-01-30T16:43:44.675Z,101064.16
2023-01-30T16:46:48.365Z,101061.88
2023-01-30T16:49:19.835Z,101078.47
2023-01-30T16:51:48.321Z,101080.22
2023-01-30T16:54:24.651Z,101096.63
2023-01-30T16:56:55.421Z,101099.50
2023-01-30T16:59:28.936Z,101092.09
2023-01-30T17:01:59.248Z,101096.22
2023-01-30T17:04:30.573Z,101092.59
2023-01-30T17:07:00.230Z,101094.53
2023-01-30T17:09:44.538Z,101108.72
2023-01-30T17:12:49.098Z,101125.53
2023-01-30T17:15:34.723Z,101121.94
2023-01-30T17:18:04.253Z,101133.53
2023-01-30T17:20:39.581Z,101146.28
2023-01-30T17:23:10.321Z,101145.97
2023-01-30T17:25:40.981Z,101170.59
2023-01-30T17:28:09.740Z,101173.19
2023-01-30T17:30:37.780Z,101173.03
2023-01-30T17:33:07.089Z,101198.22
2023-01-30T17:35:35.051Z,101187.69
2023-01-30T17:38:06.009Z,101183.78
2023-01-30T17:40:35.772Z,101193.72
2023-01-30T17:43:03.756Z,101209.81
2023-01-30T17:45:31.712Z,101220.69
2023-01-30T17:47:59.654Z,101231.25
2023-01-30T17:50:29.596Z,101225.84
2023-01-30T17:52:57.495Z,101226.53
2023-01-30T17:55:25.551Z,101220.69
2023-01-30T17:57:54.207Z,101222.38
2023-01-30T18:00:23.522Z,101225.50
2023-01-30T18:02:51.528Z,101215.47
2023-01-30T18:05:19.478Z,101219.09
2023-01-30T18:07:48.789Z,101219.22
2023-01-30T18:10:20.184Z,101228.03
2023-01-30T18:12:48.288Z,101222.34
2023-01-30T18:15:17.003Z,101228.66
2023-01-30T18:17:47.414Z,101215.75
2023-01-30T18:20:18.312Z,101221.75
2023-01-30T18:22:48.087Z,101221.47
2023-01-30T18:25:17.405Z,101214.63
2023-01-30T18:27:48.105Z,101211.50
2023-01-30T18:30:18.055Z,101225.81
2023-01-30T18:32:53.025Z,101219.94
2023-01-30T18:35:22.218Z,101226.06
2023-01-30T18:37:51.954Z,101233.44
2023-01-30T18:40:20.656Z,101241.59
2023-01-30T18:42:48.815Z,101249.19
2023-01-30T18:45:17.030Z,101255.78
2023-01-30T18:47:44.965Z,101265.81
2023-01-30T18:50:13.059Z,101273.84
2023-01-30T18:52:41.040Z,101255.06
2023-01-30T18:55:10.970Z,101276.81
2023-01-30T18:57:38.855Z,101261.41
2023-01-30T19:00:08.180Z,101272.16
2023-01-30T19:02:36.150Z,101271.19
2023-01-30T19:05:04.278Z,101286.34
2023-01-30T19:07:32.189Z,101289.97
2023-01-30T19:10:00.531Z,101319.47
2023-01-30T19:12:47.299Z,101328.84
2023-01-30T19:15:15.323Z,101321.69
2023-01-30T19:17:43.222Z,101327.31
2023-01-30T19:20:12.525Z,101345.44
2023-01-30T19:22:40.859Z,101354.19
2023-01-30T19:25:09.484Z,101361.91
2023-01-30T19:27:39.299Z,101368.38
2023-01-30T19:30:08.662Z,101373.59
2023-01-30T19:32:36.649Z,101372.97
2023-01-30T19:35:04.857Z,101381.94
2023-01-30T19:37:32.852Z,101368.00
2023-01-30T19:40:00.849Z,101370.22
2023-01-30T19:42:28.760Z,101371.94
2023-01-30T19:44:58.243Z,101366.78
2023-01-30T19:47:26.157Z,101376.41
2023-01-30T19:49:55.857Z,101375.06
2023-01-30T19:52:23.790Z,101385.09
2023-01-30T19:54:51.815Z,101399.38
2023-01-30T19:57:21.040Z,101399.38
2023-01-30T19:59:48.939Z,101416.56
2023-01-30T20:02:18.264Z,101424.41
2023-01-30T20:04:46.149Z,101416.16
2023-01-30T20:07:14.036Z,101421.47
2023-01-30T20:09:41.968Z,101424.41
2023-01-30T20:12:09.951Z,101427.59
2023-01-30T20:14:37.867Z,101425.22
2023-01-30T20:17:05.789Z,101418.63
2023-01-30T20:19:35.068Z,101419.72
2023-01-30T20:22:08.098Z,101424.19
2023-01-30T20:24:36.072Z,101419.88
2023-01-30T20:27:04.976Z,101429.97
2023-01-30T20:29:32.898Z,101435.66
2023-01-30T20:32:00.883Z,101443.47
2023-01-30T20:34:29.079Z,101451.34
2023-01-30T20:36:59.816Z,101432.25
2023-01-30T20:39:27.763Z,101437.16
2023-01-30T20:41:55.682Z,101451.78
2023-01-30T20:44:24.293Z,101450.06
2023-01-30T20:46:52.478Z,101449.56
2023-01-30T20:49:22.152Z,101453.19
2023-01-30T20:51:52.319Z,101444.13
2023-01-30T20:54:23.135Z,101454.84
2023-01-30T20:56:53.147Z,101453.34
2023-01-30T20:59:24.052Z,101450.59
2023-01-30T21:01:52.591Z,101454.34
2023-01-30T21:04:24.257Z,101469.94
2023-01-30T21:06:52.393Z,101472.75
2023-01-30T21:09:23.386Z,101470.16
2023-01-30T21:11:52.685Z,101473.78
2023-01-30T21:14:20.628Z,101479.31
2023-01-30T21:16:48.833Z,101479.84
2023-01-30T21:19:17.964Z,101494.28
2023-01-30T21:21:50.822Z,101490.44
2023-01-30T21:24:23.815Z,101497.09
2023-01-30T21:26:52.201Z,101489.91
2023-01-30T21:29:22.105Z,101503.38
2023-01-30T21:31:50.425Z,101513.94
2023-01-30T21:34:18.534Z,101523.00
2023-01-30T21:37:06.848Z,101524.13
2023-01-30T21:39:53.905Z,101523.47
2023-01-30T21:42:39.335Z,101522.59
2023-01-30T21:45:08.462Z,101533.44
2023-01-30T21:47:36.983Z,101529.53
2023-01-30T21:50:05.547Z,101522.44
2023-01-30T21:52:33.864Z,101530.41
2023-01-30T21:55:03.157Z,101530.84
2023-01-30T21:57:31.098Z,101537.78
2023-01-30T21:59:58.995Z,101532.50
2023-01-30T22:02:26.965Z,101545.22
2023-01-30T22:04:54.927Z,101543.44
2023-01-30T22:07:22.842Z,101543.81
2023-01-30T22:09:50.791Z,101544.03
2023-01-30T22:12:20.091Z,101554.97
2023-01-30T22:14:47.981Z,101550.91
2023-01-30T22:17:16.005Z,101555.97
2023-01-30T22:19:43.943Z,101560.59
2023-01-30T22:22:11.899Z,101571.69
2023-01-30T22:24:39.794Z,101564.94
2023-01-30T22:27:07.746Z,101580.00
2023-01-30T22:29:37.359Z,101586.75
2023-01-30T22:32:05.914Z,101581.25
2023-01-30T22:34:35.927Z,101588.66
2023-01-30T22:37:04.022Z,101590.44
2023-01-30T22:39:31.940Z,101604.00
2023-01-30T22:41:59.840Z,101596.75
2023-01-30T22:44:27.875Z,101603.91
2023-01-30T22:46:57.162Z,101603.63
2023-01-30T22:49:25.129Z,101601.88
2023-01-30T22:51:53.055Z,101605.59
2023-01-30T22:54:20.953Z,101611.41
2023-01-30T22:56:52.821Z,101615.09
2023-01-30T22:59:21.728Z,101628.50
2023-01-30T23:01:50.991Z,101623.84
2023-01-30T23:04:21.937Z,101615.13
2023-01-30T23:06:51.365Z,101610.44
2023-01-30T23:09:20.764Z,101606.22
2023-01-30T23:12:10.278Z,101602.19
2023-01-30T23:14:39.229Z,101605.53
2023-01-30T23:17:21.889Z,101602.69
2023-01-30T23:19:51.403Z,101612.03
2023-01-30T23:22:19.433Z,101603.19
2023-01-30T23:24:48.612Z,101608.56
2023-01-30T23:27:16.655Z,101605.28
2023-01-30T23:29:44.626Z,101604.41
2023-01-30T23:32:12.618Z,101599.84
2023-01-30T23:34:40.538Z,101607.88
2023-01-30T23:37:09.814Z,101604.88
2023-01-30T23:39:37.786Z,101606.03
2023-01-30T23:42:05.705Z,101612.47
2023-01-30T23:44:33.644Z,101602.75
2023-01-30T23:47:01.606Z,101599.38
2023-01-30T23:49:29.544Z,101610.00
2023-01-30T23:51:57.444Z,101616.94
2023-01-30T23:54:26.967Z,101626.81
2023-01-30T23:56:55.501Z,101633.25
2023-01-30T23:59:23.377Z,101631.44
